sensor_id;sensor_type;location;lat;lon;timestamp;P1;durP1;ratioP1;P2;durP2;ratioP2
50815;SDS011;39717;47.324;8.788;2023-04-03T00:00:08;5.43;;;4.43;;
50815;SDS011;39717;47.324;8.788;2023-04-03T00:02:35;4.80;;;3.50;;
50815;SDS011;39717;47.324;8.788;2023-04-03T00:05:02;3.40;;;3.10;;
50815;SDS011;39717;47.324;8.788;2023-04-03T00:07:29;4.50;;;3.10;;
50815;SDS011;39717;47.324;8.788;2023-04-03T00:09:55;3.30;;;3.00;;
50815;SDS011;39717;47.324;8.788;2023-04-03T00:12:21;3.30;;;3.00;;
50815;SDS011;39717;47.324;8.788;2023-04-03T00:14:49;3.33;;;2.87;;
50815;SDS011;39717;47.324;8.788;2023-04-03T00:17:15;2.97;;;2.67;;
50815;SDS011;39717;47.324;8.788;2023-04-03T00:19:41;2.67;;;2.47;;
50815;SDS011;39717;47.324;8.788;2023-04-03T00:22:07;2.67;;;2.47;;
50815;SDS011;39717;47.324;8.788;2023-04-03T00:24:33;2.50;;;2.30;;
50815;SDS011;39717;47.324;8.788;2023-04-03T00:26:59;2.47;;;2.27;;
50815;SDS011;39717;47.324;8.788;2023-04-03T00:29:25;2.50;;;2.30;;
50815;SDS011;39717;47.324;8.788;2023-04-03T00:31:52;2.70;;;2.50;;
50815;SDS011;39717;47.324;8.788;2023-04-03T00:34:18;3.13;;;2.73;;
50815;SDS011;39717;47.324;8.788;2023-04-03T00:36:44;4.40;;;2.77;;
50815;SDS011;39717;47.324;8.788;2023-04-03T00:39:10;2.73;;;2.53;;
50815;SDS011;39717;47.324;8.788;2023-04-03T00:41:37;4.73;;;2.83;;
50815;SDS011;39717;47.324;8.788;2023-04-03T00:46:55;3.17;;;2.87;;
50815;SDS011;39717;47.324;8.788;2023-04-03T00:49:21;2.70;;;2.50;;
50815;SDS011;39717;47.324;8.788;2023-04-03T00:51:47;3.00;;;2.70;;
50815;SDS011;39717;47.324;8.788;2023-04-03T00:54:15;2.30;;;2.10;;
50815;SDS011;39717;47.324;8.788;2023-04-03T00:56:42;3.33;;;3.03;;
50815;SDS011;39717;47.324;8.788;2023-04-03T00:59:16;3.40;;;3.10;;
50815;SDS011;39717;47.324;8.788;2023-04-03T01:01:49;4.27;;;3.33;;
50815;SDS011;39717;47.324;8.788;2023-04-03T01:06:55;2.87;;;2.67;;
50815;SDS011;39717;47.324;8.788;2023-04-03T01:09:22;3.40;;;3.10;;
50815;SDS011;39717;47.324;8.788;2023-04-03T01:11:48;4.00;;;3.60;;
50815;SDS011;39717;47.324;8.788;2023-04-03T01:14:16;3.60;;;3.10;;
50815;SDS011;39717;47.324;8.788;2023-04-03T01:16:42;4.33;;;3.90;;
50815;SDS011;39717;47.324;8.788;2023-04-03T01:19:10;4.13;;;3.50;;
50815;SDS011;39717;47.324;8.788;2023-04-03T01:24:33;5.30;;;3.60;;
50815;SDS011;39717;47.324;8.788;2023-04-03T01:27:01;4.20;;;3.50;;
50815;SDS011;39717;47.324;8.788;2023-04-03T01:29:29;4.13;;;3.73;;
50815;SDS011;39717;47.324;8.788;2023-04-03T01:31:56;4.30;;;3.90;;
50815;SDS011;39717;47.324;8.788;2023-04-03T01:34:23;3.57;;;3.03;;
50815;SDS011;39717;47.324;8.788;2023-04-03T01:36:49;4.23;;;3.23;;
50815;SDS011;39717;47.324;8.788;2023-04-03T01:39:16;2.70;;;2.50;;
50815;SDS011;39717;47.324;8.788;2023-04-03T01:41:42;3.30;;;3.00;;
50815;SDS011;39717;47.324;8.788;2023-04-03T01:44:08;3.40;;;3.10;;
50815;SDS011;39717;47.324;8.788;2023-04-03T01:46:34;3.20;;;2.90;;
50815;SDS011;39717;47.324;8.788;2023-04-03T01:49:00;2.87;;;2.67;;
50815;SDS011;39717;47.324;8.788;2023-04-03T01:51:27;2.73;;;2.43;;
50815;SDS011;39717;47.324;8.788;2023-04-03T01:53:53;2.30;;;2.10;;
50815;SDS011;39717;47.324;8.788;2023-04-03T01:56:19;2.47;;;2.27;;
50815;SDS011;39717;47.324;8.788;2023-04-03T01:58:45;3.30;;;2.80;;
50815;SDS011;39717;47.324;8.788;2023-04-03T02:01:11;3.17;;;2.73;;
50815;SDS011;39717;47.324;8.788;2023-04-03T02:03:37;2.83;;;2.63;;
50815;SDS011;39717;47.324;8.788;2023-04-03T02:06:03;2.60;;;2.40;;
50815;SDS011;39717;47.324;8.788;2023-04-03T02:08:30;3.90;;;2.83;;
50815;SDS011;39717;47.324;8.788;2023-04-03T02:10:56;3.17;;;2.87;;
50815;SDS011;39717;47.324;8.788;2023-04-03T02:13:22;3.63;;;3.33;;
50815;SDS011;39717;47.324;8.788;2023-04-03T02:15:48;3.40;;;3.07;;
50815;SDS011;39717;47.324;8.788;2023-04-03T02:18:14;3.43;;;3.13;;
50815;SDS011;39717;47.324;8.788;2023-04-03T02:20:40;4.73;;;3.47;;
50815;SDS011;39717;47.324;8.788;2023-04-03T02:23:07;3.70;;;3.40;;
50815;SDS011;39717;47.324;8.788;2023-04-03T02:25:33;4.27;;;3.87;;
50815;SDS011;39717;47.324;8.788;2023-04-03T02:27:59;4.53;;;3.53;;
50815;SDS011;39717;47.324;8.788;2023-04-03T02:30:25;5.50;;;4.10;;
50815;SDS011;39717;47.324;8.788;2023-04-03T02:32:52;4.80;;;4.30;;
50815;SDS011;39717;47.324;8.788;2023-04-03T02:35:18;7.47;;;4.07;;
50815;SDS011;39717;47.324;8.788;2023-04-03T02:37:45;5.53;;;4.47;;
50815;SDS011;39717;47.324;8.788;2023-04-03T02:40:11;5.23;;;4.70;;
50815;SDS011;39717;47.324;8.788;2023-04-03T02:42:37;5.10;;;4.60;;
50815;SDS011;39717;47.324;8.788;2023-04-03T02:45:04;4.90;;;4.40;;
50815;SDS011;39717;47.324;8.788;2023-04-03T02:47:30;4.70;;;4.30;;
50815;SDS011;39717;47.324;8.788;2023-04-03T02:49:56;4.17;;;3.77;;
50815;SDS011;39717;47.324;8.788;2023-04-03T02:52:22;4.80;;;4.30;;
50815;SDS011;39717;47.324;8.788;2023-04-03T02:54:48;4.83;;;4.33;;
50815;SDS011;39717;47.324;8.788;2023-04-03T02:57:14;4.80;;;4.30;;
50815;SDS011;39717;47.324;8.788;2023-04-03T02:59:40;4.23;;;3.83;;
50815;SDS011;39717;47.324;8.788;2023-04-03T03:02:07;4.97;;;4.47;;
50815;SDS011;39717;47.324;8.788;2023-04-03T03:04:33;4.23;;;3.83;;
50815;SDS011;39717;47.324;8.788;2023-04-03T03:07:00;4.90;;;4.07;;
50815;SDS011;39717;47.324;8.788;2023-04-03T03:09:26;4.40;;;4.00;;
50815;SDS011;39717;47.324;8.788;2023-04-03T03:11:53;4.20;;;3.80;;
50815;SDS011;39717;47.324;8.788;2023-04-03T03:14:20;4.70;;;4.20;;
50815;SDS011;39717;47.324;8.788;2023-04-03T03:16:47;4.27;;;3.87;;
50815;SDS011;39717;47.324;8.788;2023-04-03T03:19:14;5.57;;;4.57;;
50815;SDS011;39717;47.324;8.788;2023-04-03T03:21:40;4.70;;;4.20;;
50815;SDS011;39717;47.324;8.788;2023-04-03T03:24:06;5.13;;;4.23;;
50815;SDS011;39717;47.324;8.788;2023-04-03T03:26:32;5.53;;;4.30;;
50815;SDS011;39717;47.324;8.788;2023-04-03T03:28:58;5.53;;;4.80;;
50815;SDS011;39717;47.324;8.788;2023-04-03T03:31:25;4.73;;;4.00;;
50815;SDS011;39717;47.324;8.788;2023-04-03T03:33:51;5.27;;;4.77;;
50815;SDS011;39717;47.324;8.788;2023-04-03T03:36:18;4.97;;;4.47;;
50815;SDS011;39717;47.324;8.788;2023-04-03T03:38:44;5.03;;;4.50;;
50815;SDS011;39717;47.324;8.788;2023-04-03T03:41:10;5.00;;;4.50;;
50815;SDS011;39717;47.324;8.788;2023-04-03T03:43:37;5.17;;;4.67;;
50815;SDS011;39717;47.324;8.788;2023-04-03T03:46:04;5.17;;;4.67;;
50815;SDS011;39717;47.324;8.788;2023-04-03T03:48:30;7.30;;;5.17;;
50815;SDS011;39717;47.324;8.788;2023-04-03T03:50:56;5.63;;;4.80;;
50815;SDS011;39717;47.324;8.788;2023-04-03T03:53:22;5.60;;;4.77;;
50815;SDS011;39717;47.324;8.788;2023-04-03T03:55:48;6.53;;;5.40;;
50815;SDS011;39717;47.324;8.788;2023-04-03T03:58:15;5.50;;;4.90;;
50815;SDS011;39717;47.324;8.788;2023-04-03T04:00:41;5.20;;;4.70;;
50815;SDS011;39717;47.324;8.788;2023-04-03T04:03:07;5.20;;;4.70;;
50815;SDS011;39717;47.324;8.788;2023-04-03T04:05:33;5.27;;;4.70;;
50815;SDS011;39717;47.324;8.788;2023-04-03T04:08:00;5.17;;;4.47;;
50815;SDS011;39717;47.324;8.788;2023-04-03T04:10:26;5.67;;;4.23;;
50815;SDS011;39717;47.324;8.788;2023-04-03T04:12:52;4.87;;;4.37;;
50815;SDS011;39717;47.324;8.788;2023-04-03T04:15:19;5.67;;;4.77;;
50815;SDS011;39717;47.324;8.788;2023-04-03T04:17:48;5.13;;;4.60;;
50815;SDS011;39717;47.324;8.788;2023-04-03T04:20:14;5.30;;;4.43;;
50815;SDS011;39717;47.324;8.788;2023-04-03T04:22:41;5.40;;;4.90;;
50815;SDS011;39717;47.324;8.788;2023-04-03T04:25:07;6.10;;;5.50;;
50815;SDS011;39717;47.324;8.788;2023-04-03T04:27:34;5.50;;;4.77;;
50815;SDS011;39717;47.324;8.788;2023-04-03T04:30:02;5.13;;;4.63;;
50815;SDS011;39717;47.324;8.788;2023-04-03T04:32:28;5.23;;;4.67;;
50815;SDS011;39717;47.324;8.788;2023-04-03T04:34:55;5.63;;;4.57;;
50815;SDS011;39717;47.324;8.788;2023-04-03T04:37:21;4.70;;;4.20;;
50815;SDS011;39717;47.324;8.788;2023-04-03T04:39:48;5.67;;;5.07;;
50815;SDS011;39717;47.324;8.788;2023-04-03T04:42:14;5.20;;;4.50;;
50815;SDS011;39717;47.324;8.788;2023-04-03T04:44:40;5.97;;;4.93;;
50815;SDS011;39717;47.324;8.788;2023-04-03T04:47:06;6.20;;;4.70;;
50815;SDS011;39717;47.324;8.788;2023-04-03T04:49:32;6.10;;;4.80;;
50815;SDS011;39717;47.324;8.788;2023-04-03T04:51:59;6.03;;;4.77;;
50815;SDS011;39717;47.324;8.788;2023-04-03T04:54:25;7.23;;;5.00;;
50815;SDS011;39717;47.324;8.788;2023-04-03T04:56:51;5.23;;;4.73;;
50815;SDS011;39717;47.324;8.788;2023-04-03T04:59:17;7.30;;;5.40;;
50815;SDS011;39717;47.324;8.788;2023-04-03T05:01:43;6.20;;;5.20;;
50815;SDS011;39717;47.324;8.788;2023-04-03T05:04:09;6.17;;;5.47;;
50815;SDS011;39717;47.324;8.788;2023-04-03T05:06:39;6.50;;;5.83;;
50815;SDS011;39717;47.324;8.788;2023-04-03T05:09:05;8.00;;;6.00;;
50815;SDS011;39717;47.324;8.788;2023-04-03T05:11:31;8.27;;;5.97;;
50815;SDS011;39717;47.324;8.788;2023-04-03T05:13:57;6.87;;;5.97;;
50815;SDS011;39717;47.324;8.788;2023-04-03T05:16:23;6.57;;;5.87;;
50815;SDS011;39717;47.324;8.788;2023-04-03T05:18:50;7.73;;;6.03;;
50815;SDS011;39717;47.324;8.788;2023-04-03T05:21:16;14.70;;;6.93;;
50815;SDS011;39717;47.324;8.788;2023-04-03T05:23:48;8.17;;;6.70;;
50815;SDS011;39717;47.324;8.788;2023-04-03T05:26:14;7.33;;;6.00;;
50815;SDS011;39717;47.324;8.788;2023-04-03T05:28:40;6.90;;;6.17;;
50815;SDS011;39717;47.324;8.788;2023-04-03T05:31:07;8.17;;;6.03;;
50815;SDS011;39717;47.324;8.788;2023-04-03T05:33:33;6.73;;;5.97;;
50815;SDS011;39717;47.324;8.788;2023-04-03T05:36:03;8.03;;;6.80;;
50815;SDS011;39717;47.324;8.788;2023-04-03T05:38:30;7.87;;;6.10;;
50815;SDS011;39717;47.324;8.788;2023-04-03T05:40:58;6.37;;;5.70;;
50815;SDS011;39717;47.324;8.788;2023-04-03T05:43:24;6.67;;;5.80;;
50815;SDS011;39717;47.324;8.788;2023-04-03T05:45:51;7.67;;;6.00;;
50815;SDS011;39717;47.324;8.788;2023-04-03T05:48:18;7.97;;;6.30;;
50815;SDS011;39717;47.324;8.788;2023-04-03T05:50:45;7.23;;;5.27;;
50815;SDS011;39717;47.324;8.788;2023-04-03T05:53:21;7.27;;;6.47;;
50815;SDS011;39717;47.324;8.788;2023-04-03T05:55:49;7.30;;;5.83;;
50815;SDS011;39717;47.324;8.788;2023-04-03T05:58:15;7.73;;;5.50;;
50815;SDS011;39717;47.324;8.788;2023-04-03T06:00:41;8.73;;;6.17;;
50815;SDS011;39717;47.324;8.788;2023-04-03T06:03:08;7.57;;;6.10;;
50815;SDS011;39717;47.324;8.788;2023-04-03T06:05:34;7.20;;;6.00;;
50815;SDS011;39717;47.324;8.788;2023-04-03T06:08:00;8.17;;;5.77;;
50815;SDS011;39717;47.324;8.788;2023-04-03T06:10:26;7.33;;;6.00;;
50815;SDS011;39717;47.324;8.788;2023-04-03T06:12:53;8.70;;;6.20;;
50815;SDS011;39717;47.324;8.788;2023-04-03T06:15:20;7.43;;;5.63;;
50815;SDS011;39717;47.324;8.788;2023-04-03T06:17:47;7.97;;;6.10;;
50815;SDS011;39717;47.324;8.788;2023-04-03T06:20:13;7.43;;;6.07;;
50815;SDS011;39717;47.324;8.788;2023-04-03T06:22:41;7.87;;;6.10;;
50815;SDS011;39717;47.324;8.788;2023-04-03T06:25:07;7.77;;;5.73;;
50815;SDS011;39717;47.324;8.788;2023-04-03T06:27:35;10.63;;;5.87;;
50815;SDS011;39717;47.324;8.788;2023-04-03T06:30:01;6.73;;;5.70;;
50815;SDS011;39717;47.324;8.788;2023-04-03T06:32:27;7.97;;;5.80;;
50815;SDS011;39717;47.324;8.788;2023-04-03T06:34:53;6.30;;;5.50;;
50815;SDS011;39717;47.324;8.788;2023-04-03T06:37:21;7.57;;;6.20;;
50815;SDS011;39717;47.324;8.788;2023-04-03T06:39:48;7.57;;;5.90;;
50815;SDS011;39717;47.324;8.788;2023-04-03T06:42:14;8.67;;;6.67;;
50815;SDS011;39717;47.324;8.788;2023-04-03T06:44:41;6.97;;;5.90;;
50815;SDS011;39717;47.324;8.788;2023-04-03T06:47:09;8.07;;;6.20;;
50815;SDS011;39717;47.324;8.788;2023-04-03T06:49:35;7.80;;;5.97;;
50815;SDS011;39717;47.324;8.788;2023-04-03T06:52:02;8.13;;;6.17;;
50815;SDS011;39717;47.324;8.788;2023-04-03T06:54:28;8.43;;;6.37;;
50815;SDS011;39717;47.324;8.788;2023-04-03T06:56:54;7.80;;;6.10;;
50815;SDS011;39717;47.324;8.788;2023-04-03T06:59:21;7.03;;;5.43;;
50815;SDS011;39717;47.324;8.788;2023-04-03T07:01:47;6.90;;;6.13;;
50815;SDS011;39717;47.324;8.788;2023-04-03T07:04:14;7.80;;;6.07;;
50815;SDS011;39717;47.324;8.788;2023-04-03T07:06:40;7.73;;;6.47;;
50815;SDS011;39717;47.324;8.788;2023-04-03T07:09:08;8.60;;;6.37;;
50815;SDS011;39717;47.324;8.788;2023-04-03T07:11:34;10.33;;;6.10;;
50815;SDS011;39717;47.324;8.788;2023-04-03T07:14:01;9.37;;;5.53;;
50815;SDS011;39717;47.324;8.788;2023-04-03T07:16:28;6.97;;;5.90;;
50815;SDS011;39717;47.324;8.788;2023-04-03T07:18:56;7.17;;;6.23;;
50815;SDS011;39717;47.324;8.788;2023-04-03T07:21:23;8.27;;;6.40;;
50815;SDS011;39717;47.324;8.788;2023-04-03T07:23:49;6.70;;;5.63;;
50815;SDS011;39717;47.324;8.788;2023-04-03T07:26:16;8.00;;;6.30;;
50815;SDS011;39717;47.324;8.788;2023-04-03T07:28:42;7.73;;;6.13;;
50815;SDS011;39717;47.324;8.788;2023-04-03T07:31:12;8.17;;;6.13;;
50815;SDS011;39717;47.324;8.788;2023-04-03T07:33:39;7.10;;;5.97;;
50815;SDS011;39717;47.324;8.788;2023-04-03T07:36:06;6.10;;;5.50;;
50815;SDS011;39717;47.324;8.788;2023-04-03T07:38:33;7.73;;;5.97;;
50815;SDS011;39717;47.324;8.788;2023-04-03T07:41:00;6.50;;;5.77;;
50815;SDS011;39717;47.324;8.788;2023-04-03T07:43:26;7.47;;;5.90;;
50815;SDS011;39717;47.324;8.788;2023-04-03T07:45:53;6.87;;;6.13;;
50815;SDS011;39717;47.324;8.788;2023-04-03T07:48:20;9.53;;;5.77;;
50815;SDS011;39717;47.324;8.788;2023-04-03T07:50:46;7.13;;;5.80;;
50815;SDS011;39717;47.324;8.788;2023-04-03T07:53:12;6.07;;;5.43;;
50815;SDS011;39717;47.324;8.788;2023-04-03T07:55:39;6.73;;;5.80;;
50815;SDS011;39717;47.324;8.788;2023-04-03T07:58:15;7.40;;;5.70;;
50815;SDS011;39717;47.324;8.788;2023-04-03T08:00:42;7.03;;;6.13;;
50815;SDS011;39717;47.324;8.788;2023-04-03T08:03:09;7.57;;;5.70;;
50815;SDS011;39717;47.324;8.788;2023-04-03T08:05:42;5.67;;;4.87;;
50815;SDS011;39717;47.324;8.788;2023-04-03T08:08:13;5.87;;;5.20;;
50815;SDS011;39717;47.324;8.788;2023-04-03T08:10:40;5.40;;;4.90;;
50815;SDS011;39717;47.324;8.788;2023-04-03T08:13:07;5.97;;;5.00;;
50815;SDS011;39717;47.324;8.788;2023-04-03T08:15:34;7.43;;;5.43;;
50815;SDS011;39717;47.324;8.788;2023-04-03T08:18:00;5.90;;;5.00;;
50815;SDS011;39717;47.324;8.788;2023-04-03T08:20:27;6.43;;;5.73;;
50815;SDS011;39717;47.324;8.788;2023-04-03T08:22:54;6.73;;;5.30;;
50815;SDS011;39717;47.324;8.788;2023-04-03T08:25:20;8.03;;;5.93;;
50815;SDS011;39717;47.324;8.788;2023-04-03T08:27:47;5.90;;;4.90;;
50815;SDS011;39717;47.324;8.788;2023-04-03T08:30:13;6.40;;;4.83;;
50815;SDS011;39717;47.324;8.788;2023-04-03T08:32:40;6.10;;;4.73;;
50815;SDS011;39717;47.324;8.788;2023-04-03T08:35:11;7.23;;;5.43;;
50815;SDS011;39717;47.324;8.788;2023-04-03T08:37:37;5.87;;;5.27;;
50815;SDS011;39717;47.324;8.788;2023-04-03T08:40:04;5.73;;;5.00;;
50815;SDS011;39717;47.324;8.788;2023-04-03T08:44:59;5.47;;;4.63;;
50815;SDS011;39717;47.324;8.788;2023-04-03T08:50:30;6.13;;;5.17;;
50815;SDS011;39717;47.324;8.788;2023-04-03T08:53:00;5.77;;;4.77;;
50815;SDS011;39717;47.324;8.788;2023-04-03T08:55:31;6.77;;;5.23;;
50815;SDS011;39717;47.324;8.788;2023-04-03T08:58:05;7.07;;;4.90;;
50815;SDS011;39717;47.324;8.788;2023-04-03T09:00:34;5.10;;;4.60;;
50815;SDS011;39717;47.324;8.788;2023-04-03T09:03:03;5.17;;;4.63;;
50815;SDS011;39717;47.324;8.788;2023-04-03T09:10:42;6.77;;;4.60;;
50815;SDS011;39717;47.324;8.788;2023-04-03T09:15:53;6.20;;;4.80;;
50815;SDS011;39717;47.324;8.788;2023-04-03T09:18:26;7.90;;;5.67;;
50815;SDS011;39717;47.324;8.788;2023-04-03T09:21:14;6.33;;;4.80;;
50815;SDS011;39717;47.324;8.788;2023-04-03T09:23:44;6.70;;;5.10;;
50815;SDS011;39717;47.324;8.788;2023-04-03T09:28:44;7.53;;;5.20;;
50815;SDS011;39717;47.324;8.788;2023-04-03T09:31:21;5.37;;;4.87;;
50815;SDS011;39717;47.324;8.788;2023-04-03T09:33:52;7.07;;;4.63;;
50815;SDS011;39717;47.324;8.788;2023-04-03T09:36:36;5.63;;;5.10;;
50815;SDS011;39717;47.324;8.788;2023-04-03T09:39:03;7.00;;;5.17;;
50815;SDS011;39717;47.324;8.788;2023-04-03T09:41:30;5.73;;;5.10;;
50815;SDS011;39717;47.324;8.788;2023-04-03T09:43:58;7.53;;;5.87;;
50815;SDS011;39717;47.324;8.788;2023-04-03T09:46:28;5.40;;;4.87;;
50815;SDS011;39717;47.324;8.788;2023-04-03T09:48:56;6.10;;;5.50;;
50815;SDS011;39717;47.324;8.788;2023-04-03T09:51:26;5.97;;;5.17;;
50815;SDS011;39717;47.324;8.788;2023-04-03T09:53:54;6.13;;;5.53;;
50815;SDS011;39717;47.324;8.788;2023-04-03T09:56:27;6.07;;;5.27;;
50815;SDS011;39717;47.324;8.788;2023-04-03T10:01:31;6.80;;;5.27;;
50815;SDS011;39717;47.324;8.788;2023-04-03T10:04:17;6.27;;;5.37;;
50815;SDS011;39717;47.324;8.788;2023-04-03T10:06:45;8.33;;;5.53;;
50815;SDS011;39717;47.324;8.788;2023-04-03T10:09:16;7.90;;;5.47;;
50815;SDS011;39717;47.324;8.788;2023-04-03T10:14:26;7.13;;;6.10;;
50815;SDS011;39717;47.324;8.788;2023-04-03T10:17:17;9.50;;;6.17;;
50815;SDS011;39717;47.324;8.788;2023-04-03T10:27:13;7.03;;;6.13;;
50815;SDS011;39717;47.324;8.788;2023-04-03T10:34:52;7.27;;;5.70;;
50815;SDS011;39717;47.324;8.788;2023-04-03T10:47:31;7.60;;;6.00;;
50815;SDS011;39717;47.324;8.788;2023-04-03T10:57:24;6.40;;;5.00;;
50815;SDS011;39717;47.324;8.788;2023-04-03T10:59:56;5.87;;;5.00;;
50815;SDS011;39717;47.324;8.788;2023-04-03T11:02:24;5.13;;;4.63;;
50815;SDS011;39717;47.324;8.788;2023-04-03T11:04:52;5.17;;;4.67;;
50815;SDS011;39717;47.324;8.788;2023-04-03T11:07:38;5.10;;;4.60;;
50815;SDS011;39717;47.324;8.788;2023-04-03T11:10:13;5.40;;;4.43;;
50815;SDS011;39717;47.324;8.788;2023-04-03T11:12:49;4.70;;;4.30;;
50815;SDS011;39717;47.324;8.788;2023-04-03T11:15:19;4.73;;;4.30;;
50815;SDS011;39717;47.324;8.788;2023-04-03T11:17:58;5.60;;;4.73;;
50815;SDS011;39717;47.324;8.788;2023-04-03T11:20:29;4.67;;;4.10;;
50815;SDS011;39717;47.324;8.788;2023-04-03T11:23:00;5.00;;;4.50;;
50815;SDS011;39717;47.324;8.788;2023-04-03T11:25:29;5.37;;;4.60;;
50815;SDS011;39717;47.324;8.788;2023-04-03T11:27:59;5.27;;;4.70;;
50815;SDS011;39717;47.324;8.788;2023-04-03T11:35:46;7.33;;;5.27;;
50815;SDS011;39717;47.324;8.788;2023-04-03T11:38:15;6.03;;;4.57;;
50815;SDS011;39717;47.324;8.788;2023-04-03T11:40:44;5.77;;;4.90;;
50815;SDS011;39717;47.324;8.788;2023-04-03T11:43:24;7.47;;;4.80;;
50815;SDS011;39717;47.324;8.788;2023-04-03T11:46:01;7.10;;;5.33;;
50815;SDS011;39717;47.324;8.788;2023-04-03T11:50:59;5.73;;;4.93;;
50815;SDS011;39717;47.324;8.788;2023-04-03T11:53:36;28.83;;;6.10;;
50815;SDS011;39717;47.324;8.788;2023-04-03T12:01:53;7.90;;;4.40;;
50815;SDS011;39717;47.324;8.788;2023-04-03T12:04:21;5.30;;;4.43;;
50815;SDS011;39717;47.324;8.788;2023-04-03T12:09:24;5.57;;;4.30;;
50815;SDS011;39717;47.324;8.788;2023-04-03T12:11:52;5.73;;;4.30;;
50815;SDS011;39717;47.324;8.788;2023-04-03T12:14:18;5.03;;;4.53;;
50815;SDS011;39717;47.324;8.788;2023-04-03T12:16:47;5.03;;;4.03;;
50815;SDS011;39717;47.324;8.788;2023-04-03T12:29:43;5.00;;;4.50;;
50815;SDS011;39717;47.324;8.788;2023-04-03T12:45:09;5.40;;;4.80;;
50815;SDS011;39717;47.324;8.788;2023-04-03T12:47:42;6.70;;;4.80;;
50815;SDS011;39717;47.324;8.788;2023-04-03T12:53:11;8.20;;;5.40;;
50815;SDS011;39717;47.324;8.788;2023-04-03T12:55:38;5.63;;;5.13;;
50815;SDS011;39717;47.324;8.788;2023-04-03T13:03:26;5.87;;;5.10;;
50815;SDS011;39717;47.324;8.788;2023-04-03T13:05:54;6.07;;;5.10;;
50815;SDS011;39717;47.324;8.788;2023-04-03T13:08:21;5.93;;;5.00;;
50815;SDS011;39717;47.324;8.788;2023-04-03T13:10:52;5.73;;;5.10;;
50815;SDS011;39717;47.324;8.788;2023-04-03T13:13:20;5.83;;;4.63;;
50815;SDS011;39717;47.324;8.788;2023-04-03T13:15:49;5.90;;;4.80;;
50815;SDS011;39717;47.324;8.788;2023-04-03T13:18:30;6.93;;;4.97;;
50815;SDS011;39717;47.324;8.788;2023-04-03T13:20:58;5.53;;;4.77;;
50815;SDS011;39717;47.324;8.788;2023-04-03T13:23:27;6.47;;;4.73;;
50815;SDS011;39717;47.324;8.788;2023-04-03T13:25:53;5.73;;;5.00;;
50815;SDS011;39717;47.324;8.788;2023-04-03T13:28:21;8.30;;;4.53;;
50815;SDS011;39717;47.324;8.788;2023-04-03T13:34:28;4.63;;;4.23;;
50815;SDS011;39717;47.324;8.788;2023-04-03T13:36:31;6.67;;;4.90;;
50815;SDS011;39717;47.324;8.788;2023-04-03T13:39:04;5.63;;;4.77;;
50815;SDS011;39717;47.324;8.788;2023-04-03T13:41:33;6.47;;;4.80;;
50815;SDS011;39717;47.324;8.788;2023-04-03T13:46:43;5.17;;;4.37;;
50815;SDS011;39717;47.324;8.788;2023-04-03T13:51:45;4.33;;;3.93;;
50815;SDS011;39717;47.324;8.788;2023-04-03T13:54:22;7.20;;;4.20;;
50815;SDS011;39717;47.324;8.788;2023-04-03T13:56:55;6.37;;;4.60;;
50815;SDS011;39717;47.324;8.788;2023-04-03T13:59:24;4.73;;;4.00;;
50815;SDS011;39717;47.324;8.788;2023-04-03T14:04:30;4.80;;;4.13;;
50815;SDS011;39717;47.324;8.788;2023-04-03T14:06:56;5.37;;;4.10;;
50815;SDS011;39717;47.324;8.788;2023-04-03T14:09:24;5.23;;;4.70;;
50815;SDS011;39717;47.324;8.788;2023-04-03T14:11:52;5.13;;;4.40;;
50815;SDS011;39717;47.324;8.788;2023-04-03T14:14:20;5.47;;;4.43;;
50815;SDS011;39717;47.324;8.788;2023-04-03T14:16:49;5.10;;;4.37;;
50815;SDS011;39717;47.324;8.788;2023-04-03T14:19:21;4.70;;;4.20;;
50815;SDS011;39717;47.324;8.788;2023-04-03T14:21:48;4.90;;;4.27;;
50815;SDS011;39717;47.324;8.788;2023-04-03T14:24:16;5.70;;;4.73;;
50815;SDS011;39717;47.324;8.788;2023-04-03T14:26:44;5.17;;;4.30;;
50815;SDS011;39717;47.324;8.788;2023-04-03T14:29:11;4.73;;;4.27;;
50815;SDS011;39717;47.324;8.788;2023-04-03T14:31:38;5.63;;;4.73;;
50815;SDS011;39717;47.324;8.788;2023-04-03T14:34:04;5.63;;;4.33;;
50815;SDS011;39717;47.324;8.788;2023-04-03T14:36:31;5.00;;;4.10;;
50815;SDS011;39717;47.324;8.788;2023-04-03T14:38:58;5.20;;;4.43;;
50815;SDS011;39717;47.324;8.788;2023-04-03T14:41:25;4.43;;;3.57;;
50815;SDS011;39717;47.324;8.788;2023-04-03T14:43:51;4.43;;;3.90;;
50815;SDS011;39717;47.324;8.788;2023-04-03T14:46:19;5.77;;;4.57;;
50815;SDS011;39717;47.324;8.788;2023-04-03T14:48:48;4.73;;;4.00;;
50815;SDS011;39717;47.324;8.788;2023-04-03T14:51:14;7.03;;;4.27;;
50815;SDS011;39717;47.324;8.788;2023-04-03T14:53:41;6.33;;;3.97;;
50815;SDS011;39717;47.324;8.788;2023-04-03T14:56:27;6.00;;;4.20;;
50815;SDS011;39717;47.324;8.788;2023-04-03T14:59:00;6.27;;;4.50;;
50815;SDS011;39717;47.324;8.788;2023-04-03T15:01:27;6.13;;;4.10;;
50815;SDS011;39717;47.324;8.788;2023-04-03T15:03:53;3.87;;;3.50;;
50815;SDS011;39717;47.324;8.788;2023-04-03T15:06:20;5.23;;;3.73;;
50815;SDS011;39717;47.324;8.788;2023-04-03T15:08:47;4.10;;;3.70;;
50815;SDS011;39717;47.324;8.788;2023-04-03T15:11:15;5.23;;;3.87;;
50815;SDS011;39717;47.324;8.788;2023-04-03T15:13:41;5.17;;;3.73;;
50815;SDS011;39717;47.324;8.788;2023-04-03T15:16:12;4.27;;;3.87;;
50815;SDS011;39717;47.324;8.788;2023-04-03T15:18:40;4.97;;;3.67;;
50815;SDS011;39717;47.324;8.788;2023-04-03T15:21:06;5.47;;;4.10;;
50815;SDS011;39717;47.324;8.788;2023-04-03T15:23:32;4.50;;;3.60;;
50815;SDS011;39717;47.324;8.788;2023-04-03T15:25:58;4.17;;;3.60;;
50815;SDS011;39717;47.324;8.788;2023-04-03T15:28:38;5.37;;;3.63;;
50815;SDS011;39717;47.324;8.788;2023-04-03T15:31:05;3.53;;;3.23;;
50815;SDS011;39717;47.324;8.788;2023-04-03T15:33:32;6.60;;;4.00;;
50815;SDS011;39717;47.324;8.788;2023-04-03T15:35:59;4.47;;;3.47;;
50815;SDS011;39717;47.324;8.788;2023-04-03T15:38:25;3.47;;;3.17;;
50815;SDS011;39717;47.324;8.788;2023-04-03T15:40:51;4.80;;;3.83;;
50815;SDS011;39717;47.324;8.788;2023-04-03T15:43:17;5.37;;;3.77;;
50815;SDS011;39717;47.324;8.788;2023-04-03T15:45:44;5.83;;;3.83;;
50815;SDS011;39717;47.324;8.788;2023-04-03T15:48:11;4.67;;;3.70;;
50815;SDS011;39717;47.324;8.788;2023-04-03T15:50:37;3.30;;;3.00;;
50815;SDS011;39717;47.324;8.788;2023-04-03T15:53:04;4.13;;;3.67;;
50815;SDS011;39717;47.324;8.788;2023-04-03T15:55:30;3.80;;;3.30;;
50815;SDS011;39717;47.324;8.788;2023-04-03T15:57:57;4.20;;;3.80;;
50815;SDS011;39717;47.324;8.788;2023-04-03T16:00:25;3.80;;;3.50;;
50815;SDS011;39717;47.324;8.788;2023-04-03T16:02:53;6.93;;;3.73;;
50815;SDS011;39717;47.324;8.788;2023-04-03T16:05:19;5.00;;;3.47;;
50815;SDS011;39717;47.324;8.788;2023-04-03T16:07:45;3.60;;;3.27;;
50815;SDS011;39717;47.324;8.788;2023-04-03T16:10:13;3.47;;;3.17;;
50815;SDS011;39717;47.324;8.788;2023-04-03T16:12:39;4.37;;;3.67;;
50815;SDS011;39717;47.324;8.788;2023-04-03T16:15:06;4.73;;;3.67;;
50815;SDS011;39717;47.324;8.788;2023-04-03T16:17:33;4.00;;;3.60;;
50815;SDS011;39717;47.324;8.788;2023-04-03T16:19:59;7.97;;;5.40;;
50815;SDS011;39717;47.324;8.788;2023-04-03T16:22:26;4.17;;;3.67;;
50815;SDS011;39717;47.324;8.788;2023-04-03T16:24:53;3.90;;;3.40;;
50815;SDS011;39717;47.324;8.788;2023-04-03T16:27:20;4.37;;;3.40;;
50815;SDS011;39717;47.324;8.788;2023-04-03T16:29:46;4.37;;;3.50;;
50815;SDS011;39717;47.324;8.788;2023-04-03T16:32:12;4.40;;;3.90;;
50815;SDS011;39717;47.324;8.788;2023-04-03T16:34:38;5.03;;;3.57;;
50815;SDS011;39717;47.324;8.788;2023-04-03T16:37:05;4.67;;;3.77;;
50815;SDS011;39717;47.324;8.788;2023-04-03T16:39:34;7.57;;;3.83;;
50815;SDS011;39717;47.324;8.788;2023-04-03T16:42:00;4.33;;;3.80;;
50815;SDS011;39717;47.324;8.788;2023-04-03T16:44:27;6.10;;;4.00;;
50815;SDS011;39717;47.324;8.788;2023-04-03T16:46:54;5.67;;;3.83;;
50815;SDS011;39717;47.324;8.788;2023-04-03T16:49:20;3.87;;;3.50;;